sensor_id;sensor_type;location;lat;lon;timestamp;temperature;humidity
18287;DHT22;9269;50.838;12.094;2022-12-18T01:10:44;0.20;0.20
18287;DHT22;9269;50.838;12.094;2022-12-18T01:13:52;0.20;0.20
18287;DHT22;9269;50.838;12.094;2022-12-18T01:16:59;0.20;0.20
18287;DHT22;9269;50.838;12.094;2022-12-18T01:19:58;0.20;0.20
18287;DHT22;9269;50.838;12.094;2022-12-18T01:22:56;0.20;0.20
18287;DHT22;9269;50.838;12.094;2022-12-18T01:25:44;0.20;0.20
18287;DHT22;9269;50.838;12.094;2022-12-18T01:28:45;0.20;0.20
18287;DHT22;9269;50.838;12.094;2022-12-18T01:32:03;0.20;0.20
18287;DHT22;9269;50.838;12.094;2022-12-18T01:35:07;0.20;0.20
18287;DHT22;9269;50.838;12.094;2022-12-18T01:51:55;0.20;0.20
18287;DHT22;9269;50.838;12.094;2022-12-18T01:54:42;0.20;0.20
18287;DHT22;9269;50.838;12.094;2022-12-18T01:57:11;0.20;0.20
18287;DHT22;9269;50.838;12.094;2022-12-18T02:00:01;0.20;0.20
18287;DHT22;9269;50.838;12.094;2022-12-18T02:02:49;0.20;0.20
18287;DHT22;9269;50.838;12.094;2022-12-18T02:05:42;0.20;0.20
18287;DHT22;9269;50.838;12.094;2022-12-18T02:08:53;0.20;0.20
18287;DHT22;9269;50.838;12.094;2022-12-18T02:11:49;0.20;0.20
18287;DHT22;9269;50.838;12.094;2022-12-18T02:15:05;0.20;0.20
18287;DHT22;9269;50.838;12.094;2022-12-18T02:17:58;0.20;0.20
18287;DHT22;9269;50.838;12.094;2022-12-18T02:20:54;0.20;0.20
18287;DHT22;9269;50.838;12.094;2022-12-18T02:23:50;0.20;0.20
18287;DHT22;9269;50.838;12.094;2022-12-18T02:26:45;0.20;0.20
18287;DHT22;9269;50.838;12.094;2022-12-18T02:29:50;0.20;0.20
18287;DHT22;9269;50.838;12.094;2022-12-18T02:33:01;0.20;0.20
18287;DHT22;9269;50.838;12.094;2022-12-18T02:35:50;0.20;0.20
18287;DHT22;9269;50.838;12.094;2022-12-18T02:38:52;0.20;0.20
18287;DHT22;9269;50.838;12.094;2022-12-18T02:45:35;0.20;0.20
18287;DHT22;9269;50.838;12.094;2022-12-18T02:48:42;0.20;0.20
18287;DHT22;9269;50.838;12.094;2022-12-18T03:23:42;0.20;0.20
18287;DHT22;9269;50.838;12.094;2022-12-18T03:26:31;0.20;0.20
18287;DHT22;9269;50.838;12.094;2022-12-18T03:29:22;0.20;0.20
18287;DHT22;9269;50.838;12.094;2022-12-18T03:32:15;0.20;0.20
18287;DHT22;9269;50.838;12.094;2022-12-18T03:35:04;0.20;0.20
18287;DHT22;9269;50.838;12.094;2022-12-18T03:38:11;0.20;0.20
18287;DHT22;9269;50.838;12.094;2022-12-18T03:41:18;0.20;0.20
18287;DHT22;9269;50.838;12.094;2022-12-18T03:44:11;0.20;0.20
18287;DHT22;9269;50.838;12.094;2022-12-18T03:46:46;0.20;0.20
18287;DHT22;9269;50.838;12.094;2022-12-18T03:49:40;0.20;0.20
18287;DHT22;9269;50.838;12.094;2022-12-18T03:52:35;0.20;0.20
18287;DHT22;9269;50.838;12.094;2022-12-18T03:55:23;0.20;0.20
18287;DHT22;9269;50.838;12.094;2022-12-18T03:58:36;0.20;0.20
18287;DHT22;9269;50.838;12.094;2022-12-18T04:01:42;0.20;0.20
18287;DHT22;9269;50.838;12.094;2022-12-18T04:04:53;0.20;0.20
18287;DHT22;9269;50.838;12.094;2022-12-18T04:07:56;0.20;0.20
18287;DHT22;9269;50.838;12.094;2022-12-18T04:10:43;0.20;0.20
18287;DHT22;9269;50.838;12.094;2022-12-18T04:13:33;0.20;0.20
18287;DHT22;9269;50.838;12.094;2022-12-18T04:16:20;0.20;0.20
18287;DHT22;9269;50.838;12.094;2022-12-18T04:19:08;0.20;0.20
18287;DHT22;9269;50.838;12.094;2022-12-18T04:22:14;0.20;0.20
18287;DHT22;9269;50.838;12.094;2022-12-18T04:25:15;0.20;0.20
18287;DHT22;9269;50.838;12.094;2022-12-18T04:28:01;0.20;0.20
18287;DHT22;9269;50.838;12.094;2022-12-18T04:30:48;0.20;0.20
18287;DHT22;9269;50.838;12.094;2022-12-18T04:37:23;0.20;0.20
18287;DHT22;9269;50.838;12.094;2022-12-18T04:40:11;0.20;0.20
18287;DHT22;9269;50.838;12.094;2022-12-18T04:43:00;0.20;0.20
18287;DHT22;9269;50.838;12.094;2022-12-18T04:46:05;0.20;0.20
18287;DHT22;9269;50.838;12.094;2022-12-18T04:49:06;0.20;0.20
18287;DHT22;9269;50.838;12.094;2022-12-18T04:52:04;0.20;0.20
18287;DHT22;9269;50.838;12.094;2022-12-18T04:54:55;0.20;0.20
18287;DHT22;9269;50.838;12.094;2022-12-18T06:11:42;0.20;0.20
18287;DHT22;9269;50.838;12.094;2022-12-18T06:14:15;0.20;0.20
18287;DHT22;9269;50.838;12.094;2022-12-18T06:17:04;0.20;0.20
18287;DHT22;9269;50.838;12.094;2022-12-18T06:19:50;0.20;0.20
18287;DHT22;9269;50.838;12.094;2022-12-18T06:22:37;0.20;0.20
18287;DHT22;9269;50.838;12.094;2022-12-18T06:25:24;0.20;0.20
18287;DHT22;9269;50.838;12.094;2022-12-18T06:28:14;0.20;0.20
18287;DHT22;9269;50.838;12.094;2022-12-18T06:31:02;0.20;0.20
18287;DHT22;9269;50.838;12.094;2022-12-18T06:34:02;0.20;0.20
18287;DHT22;9269;50.838;12.094;2022-12-18T06:36:49;0.20;0.20
18287;DHT22;9269;50.838;12.094;2022-12-18T06:39:49;0.20;0.20
18287;DHT22;9269;50.838;12.094;2022-12-18T06:42:38;0.20;0.20
18287;DHT22;9269;50.838;12.094;2022-12-18T06:48:39;0.20;0.20
18287;DHT22;9269;50.838;12.094;2022-12-18T06:51:26;0.20;0.20
18287;DHT22;9269;50.838;12.094;2022-12-18T06:54:12;0.20;0.20
18287;DHT22;9269;50.838;12.094;2022-12-18T06:57:10;0.20;0.20
18287;DHT22;9269;50.838;12.094;2022-12-18T07:00:06;0.20;0.20
18287;DHT22;9269;50.838;12.094;2022-12-18T07:02:53;0.20;0.20
18287;DHT22;9269;50.838;12.094;2022-12-18T07:05:48;0.20;0.20
18287;DHT22;9269;50.838;12.094;2022-12-18T07:08:39;0.20;0.20
18287;DHT22;9269;50.838;12.094;2022-12-18T07:11:26;0.20;0.20
18287;DHT22;9269;50.838;12.094;2022-12-18T07:14:19;0.20;0.20
18287;DHT22;9269;50.838;12.094;2022-12-18T07:17:19;0.20;0.20
18287;DHT22;9269;50.838;12.094;2022-12-18T07:20:07;0.20;0.20
18287;DHT22;9269;50.838;12.094;2022-12-18T08:03:15;0.20;0.20
18287;DHT22;9269;50.838;12.094;2022-12-18T08:06:17;0.20;0.20
18287;DHT22;9269;50.838;12.094;2022-12-18T08:09:15;0.20;0.20
18287;DHT22;9269;50.838;12.094;2022-12-18T08:12:09;0.20;0.20
18287;DHT22;9269;50.838;12.094;2022-12-18T08:18:27;0.20;0.20
18287;DHT22;9269;50.838;12.094;2022-12-18T08:21:33;0.20;0.20
18287;DHT22;9269;50.838;12.094;2022-12-18T08:24:22;0.20;0.20
18287;DHT22;9269;50.838;12.094;2022-12-18T08:27:09;0.20;0.20
18287;DHT22;9269;50.838;12.094;2022-12-18T08:30:36;0.20;0.20
18287;DHT22;9269;50.838;12.094;2022-12-18T08:33:23;0.20;0.20
18287;DHT22;9269;50.838;12.094;2022-12-18T08:39:59;0.20;0.20
18287;DHT22;9269;50.838;12.094;2022-12-18T08:42:46;0.20;0.20
18287;DHT22;9269;50.838;12.094;2022-12-18T08:45:51;0.20;0.20
18287;DHT22;9269;50.838;12.094;2022-12-18T08:48:44;0.20;0.20
18287;DHT22;9269;50.838;12.094;2022-12-18T08:51:54;0.20;0.20
18287;DHT22;9269;50.838;12.094;2022-12-18T08:54:52;0.20;0.20
18287;DHT22;9269;50.838;12.094;2022-12-18T08:57:50;0.20;0.20
18287;DHT22;9269;50.838;12.094;2022-12-18T09:00:37;0.20;0.20
18287;DHT22;9269;50.838;12.094;2022-12-18T09:03:24;0.20;0.20
18287;DHT22;9269;50.838;12.094;2022-12-18T09:06:13;0.20;0.20
18287;DHT22;9269;50.838;12.094;2022-12-18T09:12:07;0.20;0.20
18287;DHT22;9269;50.838;12.094;2022-12-18T09:15:14;0.20;0.20
18287;DHT22;9269;50.838;12.094;2022-12-18T09:18:11;0.20;0.20
18287;DHT22;9269;50.838;12.094;2022-12-18T09:21:06;0.20;0.20
18287;DHT22;9269;50.838;12.094;2022-12-18T09:23:55;0.20;0.20
18287;DHT22;9269;50.838;12.094;2022-12-18T10:27:26;0.20;0.20
18287;DHT22;9269;50.838;12.094;2022-12-18T10:30:14;0.20;0.20
18287;DHT22;9269;50.838;12.094;2022-12-18T10:33:04;0.20;0.20
18287;DHT22;9269;50.838;12.094;2022-12-18T10:35:51;0.20;0.20
18287;DHT22;9269;50.838;12.094;2022-12-18T10:38:40;0.20;0.20
18287;DHT22;9269;50.838;12.094;2022-12-18T10:41:27;0.20;0.20
18287;DHT22;9269;50.838;12.094;2022-12-18T10:44:19;0.20;0.20
18287;DHT22;9269;50.838;12.094;2022-12-18T10:47:12;0.20;0.20
18287;DHT22;9269;50.838;12.094;2022-12-18T10:49:59;0.20;0.20
18287;DHT22;9269;50.838;12.094;2022-12-18T10:52:54;0.20;0.20
18287;DHT22;9269;50.838;12.094;2022-12-18T10:55:44;0.20;0.20
18287;DHT22;9269;50.838;12.094;2022-12-18T10:58:34;0.20;0.20
18287;DHT22;9269;50.838;12.094;2022-12-18T11:01:23;0.20;0.20
18287;DHT22;9269;50.838;12.094;2022-12-18T11:48:52;0.20;0.20
18287;DHT22;9269;50.838;12.094;2022-12-18T11:51:45;0.20;0.20
18287;DHT22;9269;50.838;12.094;2022-12-18T11:54:33;0.20;0.20
18287;DHT22;9269;50.838;12.094;2022-12-18T11:57:42;0.20;0.20
18287;DHT22;9269;50.838;12.094;2022-12-18T12:00:26;0.20;0.20
18287;DHT22;9269;50.838;12.094;2022-12-18T12:06:33;0.20;0.20
18287;DHT22;9269;50.838;12.094;2022-12-18T12:09:30;0.20;0.20
18287;DHT22;9269;50.838;12.094;2022-12-18T12:12:34;0.20;0.20
18287;DHT22;9269;50.838;12.094;2022-12-18T12:15:49;0.20;0.20
18287;DHT22;9269;50.838;12.094;2022-12-18T12:18:56;0.20;0.20
18287;DHT22;9269;50.838;12.094;2022-12-18T12:21:52;0.20;0.20
18287;DHT22;9269;50.838;12.094;2022-12-18T12:24:48;0.20;0.20
18287;DHT22;9269;50.838;12.094;2022-12-18T12:27:54;0.20;0.20
18287;DHT22;9269;50.838;12.094;2022-12-18T12:31:13;0.20;0.20
18287;DHT22;9269;50.838;12.094;2022-12-18T12:34:17;0.20;0.20
18287;DHT22;9269;50.838;12.094;2022-12-18T12:37:22;0.20;0.20
18287;DHT22;9269;50.838;12.094;2022-12-18T12:40:23;0.20;0.20
18287;DHT22;9269;50.838;12.094;2022-12-18T13:12:02;0.20;0.20
18287;DHT22;9269;50.838;12.094;2022-12-18T13:18:19;0.20;0.20
18287;DHT22;9269;50.838;12.094;2022-12-18T13:49:29;0.20;0.20
18287;DHT22;9269;50.838;12.094;2022-12-18T13:52:19;0.20;0.20
18287;DHT22;9269;50.838;12.094;2022-12-18T13:55:15;0.20;0.20
18287;DHT22;9269;50.838;12.094;2022-12-18T13:58:14;0.20;0.20
18287;DHT22;9269;50.838;12.094;2022-12-18T14:01:21;0.20;0.20
18287;DHT22;9269;50.838;12.094;2022-12-18T14:04:29;0.20;0.20
18287;DHT22;9269;50.838;12.094;2022-12-18T14:07:18;0.20;0.20
18287;DHT22;9269;50.838;12.094;2022-12-18T14:10:13;0.20;0.20
18287;DHT22;9269;50.838;12.094;2022-12-18T14:13:22;0.20;0.20
18287;DHT22;9269;50.838;12.094;2022-12-18T14:16:30;0.20;0.20
18287;DHT22;9269;50.838;12.094;2022-12-18T14:19:19;0.20;0.20
18287;DHT22;9269;50.838;12.094;2022-12-18T14:39:17;0.20;0.20
18287;DHT22;9269;50.838;12.094;2022-12-18T14:46:34;0.20;0.20
18287;DHT22;9269;50.838;12.094;2022-12-18T14:49:21;0.20;0.20
18287;DHT22;9269;50.838;12.094;2022-12-18T14:52:22;0.20;0.20
18287;DHT22;9269;50.838;12.094;2022-12-18T14:55:35;0.20;0.20
18287;DHT22;9269;50.838;12.094;2022-12-18T14:58:23;0.20;0.20
18287;DHT22;9269;50.838;12.094;2022-12-18T15:01:30;0.20;0.20
18287;DHT22;9269;50.838;12.094;2022-12-18T15:04:24;0.20;0.20
18287;DHT22;9269;50.838;12.094;2022-12-18T16:11:22;-3276.30;47.00
18287;DHT22;9269;50.838;12.094;2022-12-18T16:14:29;-3276.50;46.70
18287;DHT22;9269;50.838;12.094;2022-12-18T16:17:19;-3276.30;46.70
18287;DHT22;9269;50.838;12.094;2022-12-18T16:20:12;-3276.20;46.80
18287;DHT22;9269;50.838;12.094;2022-12-18T16:23:03;-3276.40;46.70
18287;DHT22;9269;50.838;12.094;2022-12-18T16:26:03;-3276.40;47.00
18287;DHT22;9269;50.838;12.094;2022-12-18T16:28:51;-3276.50;46.80
18287;DHT22;9269;50.838;12.094;2022-12-18T16:31:52;-3276.40;46.40
18287;DHT22;9269;50.838;12.094;2022-12-18T16:52:58;-3276.30;46.70
18287;DHT22;9269;50.838;12.094;2022-12-18T16:55:44;-3276.40;46.60
18287;DHT22;9269;50.838;12.094;2022-12-18T17:02:43;-3276.40;46.40
18287;DHT22;9269;50.838;12.094;2022-12-18T17:05:32;-3276.60;46.80
18287;DHT22;9269;50.838;12.094;2022-12-18T17:08:20;-3276.40;46.70
18287;DHT22;9269;50.838;12.094;2022-12-18T17:11:08;-3276.40;47.00
18287;DHT22;9269;50.838;12.094;2022-12-18T17:13:58;-3276.40;46.50
18287;DHT22;9269;50.838;12.094;2022-12-18T17:16:46;-3276.40;46.70
18287;DHT22;9269;50.838;12.094;2022-12-18T17:19:52;-3276.60;46.50
18287;DHT22;9269;50.838;12.094;2022-12-18T17:22:39;-3276.40;46.60
18287;DHT22;9269;50.838;12.094;2022-12-18T17:25:27;-3276.70;46.50
18287;DHT22;9269;50.838;12.094;2022-12-18T17:28:28;-3276.60;46.40
18287;DHT22;9269;50.838;12.094;2022-12-18T17:31:30;-3276.60;46.80
18287;DHT22;9269;50.838;12.094;2022-12-18T17:37:08;-3276.60;46.30
18287;DHT22;9269;50.838;12.094;2022-12-18T17:40:15;-3276.40;46.70
18287;DHT22;9269;50.838;12.094;2022-12-18T17:43:23;-3276.50;46.20
18287;DHT22;9269;50.838;12.094;2022-12-18T17:46:26;-3276.60;46.70
18287;DHT22;9269;50.838;12.094;2022-12-18T17:49:10;-3276.40;46.40
18287;DHT22;9269;50.838;12.094;2022-12-18T17:51:57;-3276.50;46.80
18287;DHT22;9269;50.838;12.094;2022-12-18T17:54:28;-3276.50;46.40
18287;DHT22;9269;50.838;12.094;2022-12-18T17:57:15;-3276.50;46.70
18287;DHT22;9269;50.838;12.094;2022-12-18T18:00:06;-3276.40;46.40
18287;DHT22;9269;50.838;12.094;2022-12-18T18:03:01;-3276.70;46.40
18287;DHT22;9269;50.838;12.094;2022-12-18T18:05:55;-3276.40;46.30
18287;DHT22;9269;50.838;12.094;2022-12-18T18:08:42;-3276.50;46.30
18287;DHT22;9269;50.838;12.094;2022-12-18T18:11:29;-3276.50;46.40
18287;DHT22;9269;50.838;12.094;2022-12-18T18:14:37;-3276.60;46.40
18287;DHT22;9269;50.838;12.094;2022-12-18T18:17:40;-3276.40;46.50
18287;DHT22;9269;50.838;12.094;2022-12-18T18:20:30;-3276.40;46.50
18287;DHT22;9269;50.838;12.094;2022-12-18T18:23:01;-3276.50;46.90
18287;DHT22;9269;50.838;12.094;2022-12-18T18:26:03;-3276.50;46.70
18287;DHT22;9269;50.838;12.094;2022-12-18T18:47:32;0.00;46.50
18287;DHT22;9269;50.838;12.094;2022-12-18T18:51:06;-3276.70;46.20
18287;DHT22;9269;50.838;12.094;2022-12-18T18:57:16;-3276.70;46.30
18287;DHT22;9269;50.838;12.094;2022-12-18T19:00:13;-3276.60;46.30
18287;DHT22;9269;50.838;12.094;2022-12-18T19:03:00;-3276.60;46.20
18287;DHT22;9269;50.838;12.094;2022-12-18T19:05:52;-3276.70;46.50
18287;DHT22;9269;50.838;12.094;2022-12-18T19:08:40;-3276.60;46.30
18287;DHT22;9269;50.838;12.094;2022-12-18T19:11:29;-3276.50;45.90
18287;DHT22;9269;50.838;12.094;2022-12-18T19:14:35;-3276.60;45.90
18287;DHT22;9269;50.838;12.094;2022-12-18T19:17:23;-3276.70;45.80
18287;DHT22;9269;50.838;12.094;2022-12-18T19:20:31;-3276.60;46.30
18287;DHT22;9269;50.838;12.094;2022-12-18T19:23:32;-3276.70;45.90
18287;DHT22;9269;50.838;12.094;2022-12-18T20:21:52;0.00;45.00
18287;DHT22;9269;50.838;12.094;2022-12-18T20:24:38;0.00;44.90
18287;DHT22;9269;50.838;12.094;2022-12-18T20:27:45;0.00;44.90
18287;DHT22;9269;50.838;12.094;2022-12-18T20:30:32;0.00;44.90
18287;DHT22;9269;50.838;12.094;2022-12-18T20:33:39;0.00;44.80
18287;DHT22;9269;50.838;12.094;2022-12-18T20:36:27;-3276.70;44.70
18287;DHT22;9269;50.838;12.094;2022-12-18T21:38:57;0.30;44.20
18287;DHT22;9269;50.838;12.094;2022-12-18T21:41:44;0.40;44.40
18287;DHT22;9269;50.838;12.094;2022-12-18T21:45:06;0.20;44.00
18287;DHT22;9269;50.838;12.094;2022-12-18T21:47:54;0.30;44.10
18287;DHT22;9269;50.838;12.094;2022-12-18T21:50:41;0.10;43.80
18287;DHT22;9269;50.838;12.094;2022-12-18T21:53:48;0.40;44.00
18287;DHT22;9269;50.838;12.094;2022-12-18T21:56:49;0.20;43.50
18287;DHT22;9269;50.838;12.094;2022-12-18T21:59:38;0.30;43.60
18287;DHT22;9269;50.838;12.094;2022-12-18T22:02:25;0.20;43.60
18287;DHT22;9269;50.838;12.094;2022-12-18T22:05:12;0.10;43.40
18287;DHT22;9269;50.838;12.094;2022-12-18T22:08:00;0.30;43.60
18287;DHT22;9269;50.838;12.094;2022-12-18T22:10:47;0.30;43.60
18287;DHT22;9269;50.838;12.094;2022-12-18T22:13:36;0.30;43.20
18287;DHT22;9269;50.838;12.094;2022-12-18T22:16:29;0.40;43.30
18287;DHT22;9269;50.838;12.094;2022-12-18T22:19:22;0.20;43.70
18287;DHT22;9269;50.838;12.094;2022-12-18T22:47:08;0.60;43.60
18287;DHT22;9269;50.838;12.094;2022-12-18T22:49:52;0.70;43.30
18287;DHT22;9269;50.838;12.094;2022-12-18T22:52:39;0.50;43.30
18287;DHT22;9269;50.838;12.094;2022-12-18T22:55:28;0.50;43.20
18287;DHT22;9269;50.838;12.094;2022-12-18T22:58:17;0.50;43.30
18287;DHT22;9269;50.838;12.094;2022-12-18T23:01:04;0.50;43.30
18287;DHT22;9269;50.838;12.094;2022-12-18T23:03:53;0.30;43.30
18287;DHT22;9269;50.838;12.094;2022-12-18T23:06:40;0.40;43.10
18287;DHT22;9269;50.838;12.094;2022-12-18T23:09:27;0.30;43.30
18287;DHT22;9269;50.838;12.094;2022-12-18T23:12:15;0.50;43.00
18287;DHT22;9269;50.838;12.094;2022-12-18T23:15:03;0.30;43.40
18287;DHT22;9269;50.838;12.094;2022-12-18T23:17:50;0.30;43.10
18287;DHT22;9269;50.838;12.094;2022-12-18T23:20:55;0.50;43.40
18287;DHT22;9269;50.838;12.094;2022-12-18T23:23:42;0.40;43.20
18287;DHT22;9269;50.838;12.094;2022-12-18T23:26:32;0.20;43.10
18287;DHT22;9269;50.838;12.094;2022-12-18T23:29:20;0.30;43.00
18287;DHT22;9269;50.838;12.094;2022-12-18T23:32:09;0.30;43.20
18287;DHT22;9269;50.838;12.094;2022-12-18T23:35:07;0.20;43.20
18287;DHT22;9269;50.838;12.094;2022-12-18T23:42:32;0.40;43.10
